sensor_id;sensor_type;location;lat;lon;timestamp;P1;durP1;ratioP1;P2;durP2;ratioP2
22270;SDS011;11304;53.520;10.104;2022-09-21T00:01:25;2.53;;;1.50;;
22270;SDS011;11304;53.520;10.104;2022-09-21T00:03:52;5.28;;;2.30;;
22270;SDS011;11304;53.520;10.104;2022-09-21T00:06:19;8.70;;;2.25;;
22270;SDS011;11304;53.520;10.104;2022-09-21T00:08:45;4.88;;;2.78;;
22270;SDS011;11304;53.520;10.104;2022-09-21T00:11:12;4.93;;;2.30;;
22270;SDS011;11304;53.520;10.104;2022-09-21T00:13:39;2.78;;;1.50;;
22270;SDS011;11304;53.520;10.104;2022-09-21T00:16:06;3.75;;;2.08;;
22270;SDS011;11304;53.520;10.104;2022-09-21T00:18:33;4.45;;;2.20;;
22270;SDS011;11304;53.520;10.104;2022-09-21T00:20:59;9.77;;;2.05;;
22270;SDS011;11304;53.520;10.104;2022-09-21T00:23:27;6.95;;;2.38;;
22270;SDS011;11304;53.520;10.104;2022-09-21T00:26:02;6.28;;;2.00;;
22270;SDS011;11304;53.520;10.104;2022-09-21T00:28:28;4.63;;;1.80;;
22270;SDS011;11304;53.520;10.104;2022-09-21T00:30:54;6.05;;;2.88;;
22270;SDS011;11304;53.520;10.104;2022-09-21T00:33:26;3.40;;;1.40;;
22270;SDS011;11304;53.520;10.104;2022-09-21T00:35:52;5.93;;;1.70;;
22270;SDS011;11304;53.520;10.104;2022-09-21T00:38:18;6.57;;;1.98;;
22270;SDS011;11304;53.520;10.104;2022-09-21T00:40:44;7.22;;;2.85;;
22270;SDS011;11304;53.520;10.104;2022-09-21T00:43:11;6.32;;;2.40;;
22270;SDS011;11304;53.520;10.104;2022-09-21T00:45:37;6.93;;;2.75;;
22270;SDS011;11304;53.520;10.104;2022-09-21T00:48:03;6.22;;;2.50;;
22270;SDS011;11304;53.520;10.104;2022-09-21T00:50:30;4.93;;;2.03;;
22270;SDS011;11304;53.520;10.104;2022-09-21T00:52:57;4.07;;;1.95;;
22270;SDS011;11304;53.520;10.104;2022-09-21T00:55:31;3.65;;;1.65;;
22270;SDS011;11304;53.520;10.104;2022-09-21T00:58:02;4.30;;;1.90;;
22270;SDS011;11304;53.520;10.104;2022-09-21T01:00:29;3.53;;;1.83;;
22270;SDS011;11304;53.520;10.104;2022-09-21T01:02:55;3.40;;;1.83;;
22270;SDS011;11304;53.520;10.104;2022-09-21T01:05:25;3.65;;;1.45;;
22270;SDS011;11304;53.520;10.104;2022-09-21T01:07:52;2.05;;;1.17;;
22270;SDS011;11304;53.520;10.104;2022-09-21T01:10:19;5.25;;;2.22;;
22270;SDS011;11304;53.520;10.104;2022-09-21T01:18:34;2.35;;;1.38;;
22270;SDS011;11304;53.520;10.104;2022-09-21T01:21:12;5.28;;;2.10;;
22270;SDS011;11304;53.520;10.104;2022-09-21T01:31:53;6.03;;;2.72;;
22270;SDS011;11304;53.520;10.104;2022-09-21T01:34:26;5.15;;;2.25;;
22270;SDS011;11304;53.520;10.104;2022-09-21T01:36:53;6.13;;;2.67;;
22270;SDS011;11304;53.520;10.104;2022-09-21T01:39:20;4.47;;;2.30;;
22270;SDS011;11304;53.520;10.104;2022-09-21T01:41:48;4.55;;;2.40;;
22270;SDS011;11304;53.520;10.104;2022-09-21T01:44:17;4.60;;;2.30;;
22270;SDS011;11304;53.520;10.104;2022-09-21T01:49:12;2.92;;;1.80;;
22270;SDS011;11304;53.520;10.104;2022-09-21T01:51:40;3.85;;;1.92;;
22270;SDS011;11304;53.520;10.104;2022-09-21T01:54:09;2.25;;;1.63;;
22270;SDS011;11304;53.520;10.104;2022-09-21T01:59:07;4.40;;;1.92;;
22270;SDS011;11304;53.520;10.104;2022-09-21T02:01:36;5.88;;;2.42;;
22270;SDS011;11304;53.520;10.104;2022-09-21T02:04:04;7.32;;;2.45;;
22270;SDS011;11304;53.520;10.104;2022-09-21T02:06:33;4.53;;;2.20;;
22270;SDS011;11304;53.520;10.104;2022-09-21T02:09:00;6.55;;;2.53;;
22270;SDS011;11304;53.520;10.104;2022-09-21T02:11:26;4.43;;;2.35;;
22270;SDS011;11304;53.520;10.104;2022-09-21T02:13:52;4.25;;;1.92;;
22270;SDS011;11304;53.520;10.104;2022-09-21T02:16:32;2.63;;;1.67;;
22270;SDS011;11304;53.520;10.104;2022-09-21T02:26:46;3.63;;;1.60;;
22270;SDS011;11304;53.520;10.104;2022-09-21T02:29:24;3.28;;;2.13;;
22270;SDS011;11304;53.520;10.104;2022-09-21T02:32:18;3.95;;;1.38;;
22270;SDS011;11304;53.520;10.104;2022-09-21T02:37:31;6.93;;;2.45;;
22270;SDS011;11304;53.520;10.104;2022-09-21T02:40:09;4.93;;;2.15;;
22270;SDS011;11304;53.520;10.104;2022-09-21T02:42:41;6.35;;;2.20;;
22270;SDS011;11304;53.520;10.104;2022-09-21T02:45:12;4.25;;;2.13;;
22270;SDS011;11304;53.520;10.104;2022-09-21T02:47:45;2.38;;;1.58;;
22270;SDS011;11304;53.520;10.104;2022-09-21T02:50:14;4.13;;;2.15;;
22270;SDS011;11304;53.520;10.104;2022-09-21T02:52:44;5.32;;;2.00;;
22270;SDS011;11304;53.520;10.104;2022-09-21T02:55:10;2.75;;;1.38;;
22270;SDS011;11304;53.520;10.104;2022-09-21T02:57:38;3.38;;;1.70;;
22270;SDS011;11304;53.520;10.104;2022-09-21T03:00:04;4.13;;;2.25;;
22270;SDS011;11304;53.520;10.104;2022-09-21T03:02:35;4.63;;;2.00;;
22270;SDS011;11304;53.520;10.104;2022-09-21T03:05:01;4.50;;;2.20;;
22270;SDS011;11304;53.520;10.104;2022-09-21T03:07:27;3.30;;;1.50;;
22270;SDS011;11304;53.520;10.104;2022-09-21T03:09:53;3.35;;;1.98;;
22270;SDS011;11304;53.520;10.104;2022-09-21T03:12:19;3.72;;;2.17;;
22270;SDS011;11304;53.520;10.104;2022-09-21T03:14:46;4.18;;;2.00;;
22270;SDS011;11304;53.520;10.104;2022-09-21T03:17:12;3.63;;;1.80;;
22270;SDS011;11304;53.520;10.104;2022-09-21T03:19:38;1.90;;;1.17;;
22270;SDS011;11304;53.520;10.104;2022-09-21T03:22:04;2.38;;;1.42;;
22270;SDS011;11304;53.520;10.104;2022-09-21T03:24:30;3.42;;;1.52;;
22270;SDS011;11304;53.520;10.104;2022-09-21T03:27:18;5.15;;;2.00;;
22270;SDS011;11304;53.520;10.104;2022-09-21T03:29:44;3.45;;;2.08;;
22270;SDS011;11304;53.520;10.104;2022-09-21T03:32:10;5.78;;;2.22;;
22270;SDS011;11304;53.520;10.104;2022-09-21T03:34:38;6.50;;;3.05;;
22270;SDS011;11304;53.520;10.104;2022-09-21T03:37:05;7.28;;;2.60;;
22270;SDS011;11304;53.520;10.104;2022-09-21T03:39:31;8.45;;;3.30;;
22270;SDS011;11304;53.520;10.104;2022-09-21T03:41:57;6.72;;;2.88;;
22270;SDS011;11304;53.520;10.104;2022-09-21T03:44:24;8.68;;;2.70;;
22270;SDS011;11304;53.520;10.104;2022-09-21T03:46:52;6.78;;;2.80;;
22270;SDS011;11304;53.520;10.104;2022-09-21T03:49:18;10.75;;;2.33;;
22270;SDS011;11304;53.520;10.104;2022-09-21T03:51:44;5.60;;;2.80;;
22270;SDS011;11304;53.520;10.104;2022-09-21T03:54:11;5.40;;;3.05;;
22270;SDS011;11304;53.520;10.104;2022-09-21T03:56:37;5.22;;;3.25;;
22270;SDS011;11304;53.520;10.104;2022-09-21T03:59:03;7.97;;;3.63;;
22270;SDS011;11304;53.520;10.104;2022-09-21T04:01:30;7.10;;;2.88;;
22270;SDS011;11304;53.520;10.104;2022-09-21T04:03:56;7.78;;;3.00;;
22270;SDS011;11304;53.520;10.104;2022-09-21T04:06:23;3.90;;;2.88;;
22270;SDS011;11304;53.520;10.104;2022-09-21T04:08:49;4.53;;;3.38;;
22270;SDS011;11304;53.520;10.104;2022-09-21T04:11:17;6.10;;;3.33;;
22270;SDS011;11304;53.520;10.104;2022-09-21T04:13:50;6.35;;;2.65;;
22270;SDS011;11304;53.520;10.104;2022-09-21T04:16:20;3.80;;;2.40;;
22270;SDS011;11304;53.520;10.104;2022-09-21T04:18:46;4.38;;;2.72;;
22270;SDS011;11304;53.520;10.104;2022-09-21T04:21:14;3.90;;;2.50;;
22270;SDS011;11304;53.520;10.104;2022-09-21T04:23:41;5.85;;;2.85;;
22270;SDS011;11304;53.520;10.104;2022-09-21T04:26:28;4.15;;;2.67;;
22270;SDS011;11304;53.520;10.104;2022-09-21T04:28:55;5.75;;;2.92;;
22270;SDS011;11304;53.520;10.104;2022-09-21T04:31:22;4.18;;;2.45;;
22270;SDS011;11304;53.520;10.104;2022-09-21T04:33:49;3.92;;;2.47;;
22270;SDS011;11304;53.520;10.104;2022-09-21T04:36:16;4.70;;;2.97;;
22270;SDS011;11304;53.520;10.104;2022-09-21T04:38:43;6.88;;;2.38;;
22270;SDS011;11304;53.520;10.104;2022-09-21T04:41:09;4.63;;;2.75;;
22270;SDS011;11304;53.520;10.104;2022-09-21T04:43:36;5.53;;;2.47;;
22270;SDS011;11304;53.520;10.104;2022-09-21T04:46:09;4.15;;;2.50;;
22270;SDS011;11304;53.520;10.104;2022-09-21T04:48:36;8.70;;;2.47;;
22270;SDS011;11304;53.520;10.104;2022-09-21T04:51:03;6.60;;;2.50;;
22270;SDS011;11304;53.520;10.104;2022-09-21T04:53:31;4.70;;;2.65;;
22270;SDS011;11304;53.520;10.104;2022-09-21T04:55:58;6.60;;;2.50;;
22270;SDS011;11304;53.520;10.104;2022-09-21T04:58:24;4.43;;;2.58;;
22270;SDS011;11304;53.520;10.104;2022-09-21T05:00:51;5.10;;;2.67;;
22270;SDS011;11304;53.520;10.104;2022-09-21T05:03:19;4.13;;;2.50;;
22270;SDS011;11304;53.520;10.104;2022-09-21T05:05:48;6.03;;;2.63;;
22270;SDS011;11304;53.520;10.104;2022-09-21T05:08:15;7.45;;;3.33;;
22270;SDS011;11304;53.520;10.104;2022-09-21T05:10:41;4.20;;;2.78;;
22270;SDS011;11304;53.520;10.104;2022-09-21T05:13:07;8.10;;;3.38;;
22270;SDS011;11304;53.520;10.104;2022-09-21T05:15:35;8.15;;;3.20;;
22270;SDS011;11304;53.520;10.104;2022-09-21T05:18:02;8.02;;;3.75;;
22270;SDS011;11304;53.520;10.104;2022-09-21T05:20:28;6.25;;;3.35;;
22270;SDS011;11304;53.520;10.104;2022-09-21T05:22:54;5.63;;;3.25;;
22270;SDS011;11304;53.520;10.104;2022-09-21T05:25:20;13.65;;;6.25;;
22270;SDS011;11304;53.520;10.104;2022-09-21T05:27:46;9.23;;;5.93;;
22270;SDS011;11304;53.520;10.104;2022-09-21T05:30:13;9.80;;;5.03;;
22270;SDS011;11304;53.520;10.104;2022-09-21T05:35:17;4.85;;;3.75;;
22270;SDS011;11304;53.520;10.104;2022-09-21T05:37:56;7.05;;;3.10;;
22270;SDS011;11304;53.520;10.104;2022-09-21T05:40:24;3.47;;;2.35;;
22270;SDS011;11304;53.520;10.104;2022-09-21T05:42:50;3.40;;;2.38;;
22270;SDS011;11304;53.520;10.104;2022-09-21T05:45:17;3.33;;;2.00;;
22270;SDS011;11304;53.520;10.104;2022-09-21T06:01:03;4.25;;;2.58;;
22270;SDS011;11304;53.520;10.104;2022-09-21T06:03:26;3.80;;;2.15;;
22270;SDS011;11304;53.520;10.104;2022-09-21T06:05:53;6.07;;;3.35;;
22270;SDS011;11304;53.520;10.104;2022-09-21T06:08:19;8.98;;;3.17;;
22270;SDS011;11304;53.520;10.104;2022-09-21T06:10:46;9.95;;;3.60;;
22270;SDS011;11304;53.520;10.104;2022-09-21T06:13:12;8.30;;;4.00;;
22270;SDS011;11304;53.520;10.104;2022-09-21T06:15:38;8.80;;;3.70;;
22270;SDS011;11304;53.520;10.104;2022-09-21T06:18:07;9.73;;;4.43;;
22270;SDS011;11304;53.520;10.104;2022-09-21T06:20:34;8.93;;;4.05;;
22270;SDS011;11304;53.520;10.104;2022-09-21T06:23:01;9.73;;;3.78;;
22270;SDS011;11304;53.520;10.104;2022-09-21T06:25:27;8.02;;;4.20;;
22270;SDS011;11304;53.520;10.104;2022-09-21T06:27:53;8.20;;;4.15;;
22270;SDS011;11304;53.520;10.104;2022-09-21T06:30:19;11.90;;;3.97;;
22270;SDS011;11304;53.520;10.104;2022-09-21T06:32:45;8.20;;;4.22;;
22270;SDS011;11304;53.520;10.104;2022-09-21T06:35:11;10.05;;;4.22;;
22270;SDS011;11304;53.520;10.104;2022-09-21T06:37:37;7.47;;;4.22;;
22270;SDS011;11304;53.520;10.104;2022-09-21T06:40:06;8.90;;;4.47;;
22270;SDS011;11304;53.520;10.104;2022-09-21T06:42:32;8.68;;;4.47;;
22270;SDS011;11304;53.520;10.104;2022-09-21T06:44:58;15.57;;;5.40;;
22270;SDS011;11304;53.520;10.104;2022-09-21T06:47:24;15.38;;;4.93;;
22270;SDS011;11304;53.520;10.104;2022-09-21T06:49:50;14.63;;;4.90;;
22270;SDS011;11304;53.520;10.104;2022-09-21T06:52:18;16.58;;;5.90;;
22270;SDS011;11304;53.520;10.104;2022-09-21T06:54:44;11.23;;;4.43;;
22270;SDS011;11304;53.520;10.104;2022-09-21T06:57:10;11.43;;;4.30;;
22270;SDS011;11304;53.520;10.104;2022-09-21T06:59:36;11.40;;;3.88;;
22270;SDS011;11304;53.520;10.104;2022-09-21T07:02:02;12.75;;;3.90;;
22270;SDS011;11304;53.520;10.104;2022-09-21T07:04:29;8.43;;;4.15;;
22270;SDS011;11304;53.520;10.104;2022-09-21T07:06:56;7.80;;;4.03;;
22270;SDS011;11304;53.520;10.104;2022-09-21T07:09:22;8.90;;;4.15;;
22270;SDS011;11304;53.520;10.104;2022-09-21T07:11:48;10.70;;;3.70;;
22270;SDS011;11304;53.520;10.104;2022-09-21T07:14:14;15.57;;;4.30;;
22270;SDS011;11304;53.520;10.104;2022-09-21T07:16:40;8.98;;;4.00;;
22270;SDS011;11304;53.520;10.104;2022-09-21T07:19:07;13.43;;;4.50;;
22270;SDS011;11304;53.520;10.104;2022-09-21T07:21:33;13.98;;;3.97;;
22270;SDS011;11304;53.520;10.104;2022-09-21T07:23:59;10.23;;;3.88;;
22270;SDS011;11304;53.520;10.104;2022-09-21T07:26:26;13.20;;;5.15;;
22270;SDS011;11304;53.520;10.104;2022-09-21T07:28:52;15.77;;;4.30;;
22270;SDS011;11304;53.520;10.104;2022-09-21T07:31:18;8.88;;;4.57;;
22270;SDS011;11304;53.520;10.104;2022-09-21T07:33:45;9.68;;;4.47;;
22270;SDS011;11304;53.520;10.104;2022-09-21T07:36:11;12.65;;;4.97;;
22270;SDS011;11304;53.520;10.104;2022-09-21T07:38:38;14.45;;;5.18;;
22270;SDS011;11304;53.520;10.104;2022-09-21T07:41:05;14.57;;;5.72;;
22270;SDS011;11304;53.520;10.104;2022-09-21T07:43:32;12.55;;;4.95;;
22270;SDS011;11304;53.520;10.104;2022-09-21T07:45:59;12.52;;;5.47;;
22270;SDS011;11304;53.520;10.104;2022-09-21T07:48:28;11.88;;;4.70;;
22270;SDS011;11304;53.520;10.104;2022-09-21T07:50:59;14.70;;;5.57;;
22270;SDS011;11304;53.520;10.104;2022-09-21T07:53:25;14.15;;;5.28;;
22270;SDS011;11304;53.520;10.104;2022-09-21T07:55:51;10.65;;;5.50;;
22270;SDS011;11304;53.520;10.104;2022-09-21T07:58:17;17.00;;;6.07;;
22270;SDS011;11304;53.520;10.104;2022-09-21T08:01:05;15.18;;;6.20;;
22270;SDS011;11304;53.520;10.104;2022-09-21T08:03:31;13.48;;;6.22;;
22270;SDS011;11304;53.520;10.104;2022-09-21T08:05:58;15.70;;;6.82;;
22270;SDS011;11304;53.520;10.104;2022-09-21T08:08:24;18.85;;;6.82;;
22270;SDS011;11304;53.520;10.104;2022-09-21T08:10:50;20.25;;;7.80;;
22270;SDS011;11304;53.520;10.104;2022-09-21T08:13:17;21.55;;;8.57;;
22270;SDS011;11304;53.520;10.104;2022-09-21T08:15:43;20.50;;;8.05;;
22270;SDS011;11304;53.520;10.104;2022-09-21T08:18:10;16.23;;;8.35;;
22270;SDS011;11304;53.520;10.104;2022-09-21T08:20:37;24.70;;;8.95;;
22270;SDS011;11304;53.520;10.104;2022-09-21T08:23:03;25.27;;;10.10;;
22270;SDS011;11304;53.520;10.104;2022-09-21T08:25:29;18.17;;;9.18;;
22270;SDS011;11304;53.520;10.104;2022-09-21T08:27:58;30.80;;;10.15;;
22270;SDS011;11304;53.520;10.104;2022-09-21T08:30:24;30.83;;;9.77;;
22270;SDS011;11304;53.520;10.104;2022-09-21T08:32:53;24.27;;;9.52;;
22270;SDS011;11304;53.520;10.104;2022-09-21T08:35:19;25.40;;;8.27;;
22270;SDS011;11304;53.520;10.104;2022-09-21T08:37:45;22.83;;;8.35;;
22270;SDS011;11304;53.520;10.104;2022-09-21T08:40:11;25.92;;;8.35;;
22270;SDS011;11304;53.520;10.104;2022-09-21T08:45:09;17.80;;;6.70;;
22270;SDS011;11304;53.520;10.104;2022-09-21T08:47:44;13.63;;;6.35;;
22270;SDS011;11304;53.520;10.104;2022-09-21T08:52:49;12.88;;;5.30;;
22270;SDS011;11304;53.520;10.104;2022-09-21T08:55:17;10.20;;;5.10;;
22270;SDS011;11304;53.520;10.104;2022-09-21T08:57:43;12.30;;;5.43;;
22270;SDS011;11304;53.520;10.104;2022-09-21T09:00:13;14.88;;;5.35;;
22270;SDS011;11304;53.520;10.104;2022-09-21T09:02:44;11.50;;;5.38;;
22270;SDS011;11304;53.520;10.104;2022-09-21T09:08:02;12.18;;;4.55;;
22270;SDS011;11304;53.520;10.104;2022-09-21T09:15:32;9.70;;;4.30;;
22270;SDS011;11304;53.520;10.104;2022-09-21T09:18:08;7.55;;;3.75;;
22270;SDS011;11304;53.520;10.104;2022-09-21T09:20:38;9.45;;;4.05;;
22270;SDS011;11304;53.520;10.104;2022-09-21T09:23:25;6.87;;;3.87;;
22270;SDS011;11304;53.520;10.104;2022-09-21T09:25:52;7.85;;;2.85;;
22270;SDS011;11304;53.520;10.104;2022-09-21T09:28:21;7.45;;;3.17;;
22270;SDS011;11304;53.520;10.104;2022-09-21T09:30:51;6.05;;;2.47;;
22270;SDS011;11304;53.520;10.104;2022-09-21T09:33:24;6.43;;;2.75;;
22270;SDS011;11304;53.520;10.104;2022-09-21T09:35:51;7.45;;;2.45;;
22270;SDS011;11304;53.520;10.104;2022-09-21T09:38:25;4.88;;;2.40;;
22270;SDS011;11304;53.520;10.104;2022-09-21T09:41:06;6.40;;;2.60;;
22270;SDS011;11304;53.520;10.104;2022-09-21T09:51:11;8.13;;;2.70;;
22270;SDS011;11304;53.520;10.104;2022-09-21T09:53:37;4.65;;;2.03;;
22270;SDS011;11304;53.520;10.104;2022-09-21T09:56:04;5.07;;;2.22;;
22270;SDS011;11304;53.520;10.104;2022-09-21T10:01:03;8.00;;;2.40;;
22270;SDS011;11304;53.520;10.104;2022-09-21T10:03:29;5.35;;;1.88;;
22270;SDS011;11304;53.520;10.104;2022-09-21T10:05:55;3.30;;;1.90;;
22270;SDS011;11304;53.520;10.104;2022-09-21T10:10:54;5.55;;;1.88;;
22270;SDS011;11304;53.520;10.104;2022-09-21T10:15:59;6.13;;;2.22;;
22270;SDS011;11304;53.520;10.104;2022-09-21T10:18:48;5.03;;;2.20;;
22270;SDS011;11304;53.520;10.104;2022-09-21T10:23:58;5.90;;;2.40;;
22270;SDS011;11304;53.520;10.104;2022-09-21T10:32:15;7.80;;;2.55;;
22270;SDS011;11304;53.520;10.104;2022-09-21T10:39:53;8.20;;;2.70;;
22270;SDS011;11304;53.520;10.104;2022-09-21T10:42:21;5.82;;;2.90;;
22270;SDS011;11304;53.520;10.104;2022-09-21T10:44:49;6.05;;;2.40;;
22270;SDS011;11304;53.520;10.104;2022-09-21T10:49:55;6.80;;;2.30;;
22270;SDS011;11304;53.520;10.104;2022-09-21T10:52:24;6.05;;;2.10;;
22270;SDS011;11304;53.520;10.104;2022-09-21T10:54:51;7.03;;;2.17;;
22270;SDS011;11304;53.520;10.104;2022-09-21T10:57:19;6.03;;;1.90;;
22270;SDS011;11304;53.520;10.104;2022-09-21T10:59:46;6.57;;;2.20;;
22270;SDS011;11304;53.520;10.104;2022-09-21T11:02:23;3.63;;;2.10;;
22270;SDS011;11304;53.520;10.104;2022-09-21T11:04:51;3.28;;;1.65;;
22270;SDS011;11304;53.520;10.104;2022-09-21T11:07:23;8.82;;;1.88;;
22270;SDS011;11304;53.520;10.104;2022-09-21T11:09:53;4.75;;;1.80;;
22270;SDS011;11304;53.520;10.104;2022-09-21T11:12:25;6.20;;;2.00;;
22270;SDS011;11304;53.520;10.104;2022-09-21T11:20:20;4.65;;;1.50;;
22270;SDS011;11304;53.520;10.104;2022-09-21T11:22:59;7.78;;;1.63;;
22270;SDS011;11304;53.520;10.104;2022-09-21T11:28:01;3.33;;;1.52;;
22270;SDS011;11304;53.520;10.104;2022-09-21T11:30:31;6.90;;;2.03;;
22270;SDS011;11304;53.520;10.104;2022-09-21T11:33:06;6.03;;;1.50;;
22270;SDS011;11304;53.520;10.104;2022-09-21T11:35:40;7.22;;;1.40;;
22270;SDS011;11304;53.520;10.104;2022-09-21T11:48:29;4.55;;;1.25;;
22270;SDS011;11304;53.520;10.104;2022-09-21T12:12:08;5.82;;;1.42;;
22270;SDS011;11304;53.520;10.104;2022-09-21T12:20:05;7.43;;;1.20;;
22270;SDS011;11304;53.520;10.104;2022-09-21T12:22:41;5.25;;;1.25;;
22270;SDS011;11304;53.520;10.104;2022-09-21T12:25:17;3.95;;;1.70;;
22270;SDS011;11304;53.520;10.104;2022-09-21T12:30:15;3.92;;;1.55;;
22270;SDS011;11304;53.520;10.104;2022-09-21T12:32:48;2.67;;;1.80;;
22270;SDS011;11304;53.520;10.104;2022-09-21T12:35:33;6.80;;;1.90;;
22270;SDS011;11304;53.520;10.104;2022-09-21T12:38:02;5.03;;;1.40;;
22270;SDS011;11304;53.520;10.104;2022-09-21T12:45:26;4.22;;;1.38;;
22270;SDS011;11304;53.520;10.104;2022-09-21T12:50:39;2.58;;;1.40;;
22270;SDS011;11304;53.520;10.104;2022-09-21T12:53:15;5.82;;;1.77;;
22270;SDS011;11304;53.520;10.104;2022-09-21T12:55:55;3.15;;;1.65;;
22270;SDS011;11304;53.520;10.104;2022-09-21T13:09:04;2.35;;;1.30;;
22270;SDS011;11304;53.520;10.104;2022-09-21T13:11:31;3.72;;;1.42;;
22270;SDS011;11304;53.520;10.104;2022-09-21T13:13:59;5.03;;;1.50;;
22270;SDS011;11304;53.520;10.104;2022-09-21T13:24:35;7.22;;;1.83;;
22270;SDS011;11304;53.520;10.104;2022-09-21T13:27:01;4.40;;;1.65;;
22270;SDS011;11304;53.520;10.104;2022-09-21T13:29:31;1.73;;;1.10;;
22270;SDS011;11304;53.520;10.104;2022-09-21T13:39:45;4.07;;;1.08;;
22270;SDS011;11304;53.520;10.104;2022-09-21T13:45:01;1.30;;;0.80;;
22270;SDS011;11304;53.520;10.104;2022-09-21T13:47:45;6.35;;;1.30;;
22270;SDS011;11304;53.520;10.104;2022-09-21T13:52:42;4.63;;;1.10;;
22270;SDS011;11304;53.520;10.104;2022-09-21T13:55:47;3.55;;;1.20;;
22270;SDS011;11304;53.520;10.104;2022-09-21T13:58:02;3.08;;;1.42;;
22270;SDS011;11304;53.520;10.104;2022-09-21T14:00:31;3.92;;;1.52;;
22270;SDS011;11304;53.520;10.104;2022-09-21T14:03:00;4.28;;;1.80;;
22270;SDS011;11304;53.520;10.104;2022-09-21T14:08:04;4.40;;;1.50;;
22270;SDS011;11304;53.520;10.104;2022-09-21T14:10:32;5.13;;;1.35;;
22270;SDS011;11304;53.520;10.104;2022-09-21T14:13:00;2.90;;;1.20;;
22270;SDS011;11304;53.520;10.104;2022-09-21T14:15:31;1.88;;;1.00;;
22270;SDS011;11304;53.520;10.104;2022-09-21T14:20:41;4.03;;;1.10;;
22270;SDS011;11304;53.520;10.104;2022-09-21T14:23:26;5.75;;;1.10;;
22270;SDS011;11304;53.520;10.104;2022-09-21T14:25:53;2.15;;;0.98;;
22270;SDS011;11304;53.520;10.104;2022-09-21T14:29:04;2.88;;;1.02;;
22270;SDS011;11304;53.520;10.104;2022-09-21T14:31:16;3.35;;;1.20;;
22270;SDS011;11304;53.520;10.104;2022-09-21T14:33:47;4.85;;;1.00;;
22270;SDS011;11304;53.520;10.104;2022-09-21T14:36:18;4.03;;;1.20;;
22270;SDS011;11304;53.520;10.104;2022-09-21T14:38:46;2.15;;;0.98;;
22270;SDS011;11304;53.520;10.104;2022-09-21T14:41:15;4.20;;;1.02;;
22270;SDS011;11304;53.520;10.104;2022-09-21T14:43:47;1.35;;;0.85;;
22270;SDS011;11304;53.520;10.104;2022-09-21T14:51:37;4.25;;;1.02;;
22270;SDS011;11304;53.520;10.104;2022-09-21T14:54:28;4.20;;;0.90;;
22270;SDS011;11304;53.520;10.104;2022-09-21T15:02:20;2.47;;;1.17;;
22270;SDS011;11304;53.520;10.104;2022-09-21T15:18:00;2.28;;;0.90;;
22270;SDS011;11304;53.520;10.104;2022-09-21T15:20:27;3.97;;;0.90;;
22270;SDS011;11304;53.520;10.104;2022-09-21T15:22:54;2.30;;;1.00;;
22270;SDS011;11304;53.520;10.104;2022-09-21T15:25:21;3.03;;;0.90;;
22270;SDS011;11304;53.520;10.104;2022-09-21T15:27:48;2.55;;;1.10;;
22270;SDS011;11304;53.520;10.104;2022-09-21T15:30:25;4.22;;;0.80;;
22270;SDS011;11304;53.520;10.104;2022-09-21T15:32:54;3.83;;;0.75;;
22270;SDS011;11304;53.520;10.104;2022-09-21T15:35:28;4.20;;;0.95;;
22270;SDS011;11304;53.520;10.104;2022-09-21T15:37:55;1.38;;;0.93;;
22270;SDS011;11304;53.520;10.104;2022-09-21T15:48:18;1.42;;;0.85;;
22270;SDS011;11304;53.520;10.104;2022-09-21T15:50:45;1.65;;;0.90;;
22270;SDS011;11304;53.520;10.104;2022-09-21T15:53:28;2.10;;;1.10;;
22270;SDS011;11304;53.520;10.104;2022-09-21T15:55:55;5.70;;;1.13;;
22270;SDS011;11304;53.520;10.104;2022-09-21T16:00:55;2.42;;;1.05;;
22270;SDS011;11304;53.520;10.104;2022-09-21T16:03:22;2.88;;;0.98;;
22270;SDS011;11304;53.520;10.104;2022-09-21T16:05:51;4.68;;;1.00;;
22270;SDS011;11304;53.520;10.104;2022-09-21T16:08:30;3.47;;;0.75;;
22270;SDS011;11304;53.520;10.104;2022-09-21T16:11:19;2.13;;;0.73;;
22270;SDS011;11304;53.520;10.104;2022-09-21T16:13:47;2.78;;;0.80;;
22270;SDS011;11304;53.520;10.104;2022-09-21T16:19:37;1.40;;;0.70;;
22270;SDS011;11304;53.520;10.104;2022-09-21T16:22:04;5.53;;;0.80;;
22270;SDS011;11304;53.520;10.104;2022-09-21T16:24:30;1.77;;;0.57;;
22270;SDS011;11304;53.520;10.104;2022-09-21T16:27:00;2.63;;;0.80;;
22270;SDS011;11304;53.520;10.104;2022-09-21T16:29:36;2.38;;;0.82;;
22270;SDS011;11304;53.520;10.104;2022-09-21T16:34:45;3.05;;;0.88;;
22270;SDS011;11304;53.520;10.104;2022-09-21T16:39:55;1.95;;;0.90;;
22270;SDS011;11304;53.520;10.104;2022-09-21T16:42:22;1.70;;;0.70;;
22270;SDS011;11304;53.520;10.104;2022-09-21T16:44:49;1.57;;;0.60;;
22270;SDS011;11304;53.520;10.104;2022-09-21T16:47:18;1.15;;;0.60;;
22270;SDS011;11304;53.520;10.104;2022-09-21T16:49:52;1.42;;;0.70;;
22270;SDS011;11304;53.520;10.104;2022-09-21T16:52:23;2.55;;;0.88;;
22270;SDS011;11304;53.520;10.104;2022-09-21T16:54:49;0.90;;;0.80;;
22270;SDS011;11304;53.520;10.104;2022-09-21T16:57:16;1.35;;;0.70;;
22270;SDS011;11304;53.520;10.104;2022-09-21T16:59:42;0.90;;;0.73;;
22270;SDS011;11304;53.520;10.104;2022-09-21T17:02:09;1.17;;;0.73;;
22270;SDS011;11304;53.520;10.104;2022-09-21T17:04:36;1.65;;;1.02;;
22270;SDS011;11304;53.520;10.104;2022-09-21T17:07:02;1.85;;;0.88;;
22270;SDS011;11304;53.520;10.104;2022-09-21T17:09:33;1.35;;;0.90;;
22270;SDS011;11304;53.520;10.104;2022-09-21T17:11:59;3.22;;;1.60;;
22270;SDS011;11304;53.520;10.104;2022-09-21T17:14:30;3.47;;;1.20;;
22270;SDS011;11304;53.520;10.104;2022-09-21T17:16:59;2.45;;;1.20;;
22270;SDS011;11304;53.520;10.104;2022-09-21T17:19:27;9.55;;;4.68;;
22270;SDS011;11304;53.520;10.104;2022-09-21T17:21:54;33.20;;;17.88;;
22270;SDS011;11304;53.520;10.104;2022-09-21T17:24:20;37.15;;;18.10;;
22270;SDS011;11304;53.520;10.104;2022-09-21T17:26:46;19.75;;;10.38;;
22270;SDS011;11304;53.520;10.104;2022-09-21T17:29:22;7.43;;;4.15;;
22270;SDS011;11304;53.520;10.104;2022-09-21T17:31:51;10.52;;;6.45;;
22270;SDS011;11304;53.520;10.104;2022-09-21T17:34:19;16.88;;;9.65;;
22270;SDS011;11304;53.520;10.104;2022-09-21T17:36:46;17.30;;;9.35;;
22270;SDS011;11304;53.520;10.104;2022-09-21T17:39:12;11.18;;;5.65;;
22270;SDS011;11304;53.520;10.104;2022-09-21T17:41:45;15.15;;;5.50;;
22270;SDS011;11304;53.520;10.104;2022-09-21T17:49:08;8.57;;;5.32;;
22270;SDS011;11304;53.520;10.104;2022-09-21T17:51:35;8.55;;;4.03;;
22270;SDS011;11304;53.520;10.104;2022-09-21T17:54:20;8.20;;;3.60;;
22270;SDS011;11304;53.520;10.104;2022-09-21T17:56:49;8.57;;;4.38;;
22270;SDS011;11304;53.520;10.104;2022-09-21T17:59:28;8.32;;;4.78;;
22270;SDS011;11304;53.520;10.104;2022-09-21T18:01:55;6.35;;;3.28;;
22270;SDS011;11304;53.520;10.104;2022-09-21T18:04:24;6.72;;;3.85;;
22270;SDS011;11304;53.520;10.104;2022-09-21T18:06:52;6.75;;;2.78;;
22270;SDS011;11304;53.520;10.104;2022-09-21T18:09:18;3.78;;;1.90;;
22270;SDS011;11304;53.520;10.104;2022-09-21T18:19:43;3.15;;;2.08;;
22270;SDS011;11304;53.520;10.104;2022-09-21T18:24:45;3.55;;;1.95;;
22270;SDS011;11304;53.520;10.104;2022-09-21T18:27:11;6.15;;;2.30;;
22270;SDS011;11304;53.520;10.104;2022-09-21T18:29:37;5.32;;;2.33;;
22270;SDS011;11304;53.520;10.104;2022-09-21T18:44:56;4.38;;;2.17;;
22270;SDS011;11304;53.520;10.104;2022-09-21T18:49:58;3.75;;;2.15;;
22270;SDS011;11304;53.520;10.104;2022-09-21T18:52:44;5.43;;;1.60;;
22270;SDS011;11304;53.520;10.104;2022-09-21T18:55:22;3.75;;;1.60;;
22270;SDS011;11304;53.520;10.104;2022-09-21T18:57:51;4.03;;;1.77;;